Matthews, Georgia
Current Conditions -  °F | °C
As of 3:53 PM on Thursday 20 Nov 2014 (Local Time) from KAGS Reporting Station
Clear Clear  
Wind Chill: 64°   Ceiling: Unl
Heat Index: 64°   Visibility: 10mi
Dew Point: 34°   Wind: 12mph
Humidity: 33%   Direction: 250°WSW
Pressure: 30.14"   Gusts: NA
Location:  33.25°N, 82.32°W
Report Text: KAGS 202053Z 25010KT 10SM CLR 18/01 A3014 RMK AO2 SLP206 T01780011 56015
Loading
Personal Weather Stations






























Interactive Weather Map New forecast layout! Learn more

10-Day Weather Forecast

Advertisements
Track Severe Weather on mobile